sensor_id;sensor_type;location;lat;lon;timestamp;temperature;humidity
65046;DHT22;54657;52.022;5.534;2023-09-12T00:01:28;22.10;92.40
65046;DHT22;54657;52.022;5.534;2023-09-12T00:03:58;22.20;92.40
65046;DHT22;54657;52.022;5.534;2023-09-12T00:06:24;22.10;92.50
65046;DHT22;54657;52.022;5.534;2023-09-12T00:08:51;21.90;92.70
65046;DHT22;54657;52.022;5.534;2023-09-12T00:11:16;21.80;92.90
65046;DHT22;54657;52.022;5.534;2023-09-12T00:13:42;21.80;93.00
65046;DHT22;54657;52.022;5.534;2023-09-12T00:16:08;21.80;93.00
65046;DHT22;54657;52.022;5.534;2023-09-12T00:18:39;21.80;92.90
65046;DHT22;54657;52.022;5.534;2023-09-12T00:21:04;21.90;92.90
65046;DHT22;54657;52.022;5.534;2023-09-12T00:23:30;21.90;92.90
65046;DHT22;54657;52.022;5.534;2023-09-12T00:25:57;21.90;92.90
65046;DHT22;54657;52.022;5.534;2023-09-12T00:28:22;21.80;92.90
65046;DHT22;54657;52.022;5.534;2023-09-12T00:30:48;21.80;92.90
65046;DHT22;54657;52.022;5.534;2023-09-12T00:33:14;21.80;92.90
65046;DHT22;54657;52.022;5.534;2023-09-12T00:35:39;21.80;92.90
65046;DHT22;54657;52.022;5.534;2023-09-12T00:38:05;21.90;92.80
65046;DHT22;54657;52.022;5.534;2023-09-12T00:40:32;21.90;92.70
65046;DHT22;54657;52.022;5.534;2023-09-12T00:42:58;21.80;92.70
65046;DHT22;54657;52.022;5.534;2023-09-12T00:45:24;21.80;92.70
65046;DHT22;54657;52.022;5.534;2023-09-12T00:47:50;21.70;92.80
65046;DHT22;54657;52.022;5.534;2023-09-12T00:50:16;21.70;92.90
65046;DHT22;54657;52.022;5.534;2023-09-12T00:52:43;21.70;92.90
65046;DHT22;54657;52.022;5.534;2023-09-12T00:55:09;21.70;92.90
65046;DHT22;54657;52.022;5.534;2023-09-12T00:57:36;21.70;92.90
65046;DHT22;54657;52.022;5.534;2023-09-12T01:00:03;21.60;92.80
65046;DHT22;54657;52.022;5.534;2023-09-12T01:02:41;21.60;92.90
65046;DHT22;54657;52.022;5.534;2023-09-12T01:05:08;21.60;92.90
65046;DHT22;54657;52.022;5.534;2023-09-12T01:07:35;21.60;92.90
65046;DHT22;54657;52.022;5.534;2023-09-12T01:10:01;21.60;92.90
65046;DHT22;54657;52.022;5.534;2023-09-12T01:12:29;21.60;92.80
65046;DHT22;54657;52.022;5.534;2023-09-12T01:14:55;21.60;92.90
65046;DHT22;54657;52.022;5.534;2023-09-12T01:17:20;21.60;92.90
65046;DHT22;54657;52.022;5.534;2023-09-12T01:19:46;21.60;93.00
65046;DHT22;54657;52.022;5.534;2023-09-12T01:28:23;21.50;93.30
65046;DHT22;54657;52.022;5.534;2023-09-12T01:30:52;21.40;93.10
65046;DHT22;54657;52.022;5.534;2023-09-12T01:33:19;21.40;93.00
65046;DHT22;54657;52.022;5.534;2023-09-12T01:35:44;21.40;93.00
65046;DHT22;54657;52.022;5.534;2023-09-12T01:38:12;21.40;93.10
65046;DHT22;54657;52.022;5.534;2023-09-12T01:40:49;21.30;93.10
65046;DHT22;54657;52.022;5.534;2023-09-12T01:43:21;21.40;93.30
65046;DHT22;54657;52.022;5.534;2023-09-12T01:45:50;21.40;93.10
65046;DHT22;54657;52.022;5.534;2023-09-12T01:48:20;21.30;93.20
65046;DHT22;54657;52.022;5.534;2023-09-12T01:50:46;21.20;93.40
65046;DHT22;54657;52.022;5.534;2023-09-12T01:53:12;21.10;93.40
65046;DHT22;54657;52.022;5.534;2023-09-12T01:55:42;21.00;93.50
65046;DHT22;54657;52.022;5.534;2023-09-12T01:58:07;21.10;93.40
65046;DHT22;54657;52.022;5.534;2023-09-12T02:00:33;21.10;93.30
65046;DHT22;54657;52.022;5.534;2023-09-12T02:02:59;21.10;93.20
65046;DHT22;54657;52.022;5.534;2023-09-12T02:05:25;21.10;93.10
65046;DHT22;54657;52.022;5.534;2023-09-12T02:07:51;21.10;93.00
65046;DHT22;54657;52.022;5.534;2023-09-12T02:10:17;21.10;93.10
65046;DHT22;54657;52.022;5.534;2023-09-12T02:12:42;21.00;93.20
65046;DHT22;54657;52.022;5.534;2023-09-12T02:15:08;21.00;93.20
65046;DHT22;54657;52.022;5.534;2023-09-12T02:17:34;21.00;93.10
65046;DHT22;54657;52.022;5.534;2023-09-12T02:20:00;21.00;93.10
65046;DHT22;54657;52.022;5.534;2023-09-12T02:22:25;20.90;93.00
65046;DHT22;54657;52.022;5.534;2023-09-12T02:24:51;20.90;93.20
65046;DHT22;54657;52.022;5.534;2023-09-12T02:27:16;20.90;93.10
65046;DHT22;54657;52.022;5.534;2023-09-12T02:29:42;20.90;93.10
65046;DHT22;54657;52.022;5.534;2023-09-12T02:32:08;20.80;93.00
65046;DHT22;54657;52.022;5.534;2023-09-12T02:34:34;20.90;92.90
65046;DHT22;54657;52.022;5.534;2023-09-12T02:37:00;20.80;92.90
65046;DHT22;54657;52.022;5.534;2023-09-12T02:39:25;20.80;93.00
65046;DHT22;54657;52.022;5.534;2023-09-12T02:41:51;20.70;93.00
65046;DHT22;54657;52.022;5.534;2023-09-12T02:44:17;20.60;93.20
65046;DHT22;54657;52.022;5.534;2023-09-12T02:46:42;20.60;93.20
65046;DHT22;54657;52.022;5.534;2023-09-12T02:49:08;20.50;93.20
65046;DHT22;54657;52.022;5.534;2023-09-12T02:51:33;20.60;93.20
65046;DHT22;54657;52.022;5.534;2023-09-12T02:53:59;20.60;93.10
65046;DHT22;54657;52.022;5.534;2023-09-12T02:56:24;20.50;93.20
65046;DHT22;54657;52.022;5.534;2023-09-12T02:58:50;20.50;93.40
65046;DHT22;54657;52.022;5.534;2023-09-12T03:01:17;20.50;93.20
65046;DHT22;54657;52.022;5.534;2023-09-12T03:03:43;20.50;93.20
65046;DHT22;54657;52.022;5.534;2023-09-12T03:06:09;20.40;93.10
65046;DHT22;54657;52.022;5.534;2023-09-12T03:08:35;20.50;93.10
65046;DHT22;54657;52.022;5.534;2023-09-12T03:11:00;20.50;92.90
65046;DHT22;54657;52.022;5.534;2023-09-12T03:13:28;20.50;92.90
65046;DHT22;54657;52.022;5.534;2023-09-12T03:15:53;20.50;92.80
65046;DHT22;54657;52.022;5.534;2023-09-12T03:18:19;20.40;93.00
65046;DHT22;54657;52.022;5.534;2023-09-12T03:20:45;20.40;93.00
65046;DHT22;54657;52.022;5.534;2023-09-12T03:23:10;20.40;92.90
65046;DHT22;54657;52.022;5.534;2023-09-12T03:25:37;20.40;92.80
65046;DHT22;54657;52.022;5.534;2023-09-12T03:28:06;20.40;92.90
65046;DHT22;54657;52.022;5.534;2023-09-12T03:30:36;20.40;92.90
65046;DHT22;54657;52.022;5.534;2023-09-12T03:33:02;20.30;93.10
65046;DHT22;54657;52.022;5.534;2023-09-12T03:35:29;20.30;93.20
65046;DHT22;54657;52.022;5.534;2023-09-12T03:37:54;20.30;93.30
65046;DHT22;54657;52.022;5.534;2023-09-12T03:40:20;20.20;93.20
65046;DHT22;54657;52.022;5.534;2023-09-12T03:42:46;20.30;93.30
65046;DHT22;54657;52.022;5.534;2023-09-12T03:45:11;20.30;93.20
65046;DHT22;54657;52.022;5.534;2023-09-12T03:47:37;20.20;93.30
65046;DHT22;54657;52.022;5.534;2023-09-12T03:50:03;20.20;93.50
65046;DHT22;54657;52.022;5.534;2023-09-12T03:52:29;20.30;93.40
65046;DHT22;54657;52.022;5.534;2023-09-12T03:54:55;20.30;93.30
65046;DHT22;54657;52.022;5.534;2023-09-12T03:57:20;20.30;93.20
65046;DHT22;54657;52.022;5.534;2023-09-12T03:59:46;20.30;93.20
65046;DHT22;54657;52.022;5.534;2023-09-12T04:02:12;20.40;93.30
65046;DHT22;54657;52.022;5.534;2023-09-12T04:04:38;20.40;93.30
65046;DHT22;54657;52.022;5.534;2023-09-12T04:07:04;20.40;93.20
65046;DHT22;54657;52.022;5.534;2023-09-12T04:09:30;20.40;93.20
65046;DHT22;54657;52.022;5.534;2023-09-12T04:11:55;20.40;93.20
65046;DHT22;54657;52.022;5.534;2023-09-12T04:14:21;20.30;93.20
65046;DHT22;54657;52.022;5.534;2023-09-12T04:16:47;20.20;93.30
65046;DHT22;54657;52.022;5.534;2023-09-12T04:19:14;20.10;93.60
65046;DHT22;54657;52.022;5.534;2023-09-12T04:21:39;20.00;93.70
65046;DHT22;54657;52.022;5.534;2023-09-12T04:24:06;20.00;93.70
65046;DHT22;54657;52.022;5.534;2023-09-12T04:26:32;19.90;93.70
65046;DHT22;54657;52.022;5.534;2023-09-12T04:28:57;19.90;93.80
65046;DHT22;54657;52.022;5.534;2023-09-12T04:31:23;19.90;93.80
65046;DHT22;54657;52.022;5.534;2023-09-12T04:33:51;19.90;93.80
65046;DHT22;54657;52.022;5.534;2023-09-12T04:36:17;20.00;93.70
65046;DHT22;54657;52.022;5.534;2023-09-12T04:38:43;20.00;93.50
65046;DHT22;54657;52.022;5.534;2023-09-12T04:41:08;20.10;93.50
65046;DHT22;54657;52.022;5.534;2023-09-12T04:43:35;20.10;93.50
65046;DHT22;54657;52.022;5.534;2023-09-12T04:46:01;20.10;93.40
65046;DHT22;54657;52.022;5.534;2023-09-12T04:48:27;20.00;93.50
65046;DHT22;54657;52.022;5.534;2023-09-12T04:50:53;19.90;93.70
65046;DHT22;54657;52.022;5.534;2023-09-12T04:53:18;19.90;93.70
65046;DHT22;54657;52.022;5.534;2023-09-12T04:55:44;19.90;93.60
65046;DHT22;54657;52.022;5.534;2023-09-12T04:58:09;19.90;93.50
65046;DHT22;54657;52.022;5.534;2023-09-12T05:00:35;19.90;93.60
65046;DHT22;54657;52.022;5.534;2023-09-12T05:03:02;19.90;93.60
65046;DHT22;54657;52.022;5.534;2023-09-12T05:05:29;19.90;93.50
65046;DHT22;54657;52.022;5.534;2023-09-12T05:07:54;19.90;93.40
65046;DHT22;54657;52.022;5.534;2023-09-12T05:10:20;19.90;93.40
65046;DHT22;54657;52.022;5.534;2023-09-12T05:12:45;19.80;93.60
65046;DHT22;54657;52.022;5.534;2023-09-12T05:15:11;19.80;93.70
65046;DHT22;54657;52.022;5.534;2023-09-12T05:17:37;19.80;93.70
65046;DHT22;54657;52.022;5.534;2023-09-12T05:20:03;19.80;93.70
65046;DHT22;54657;52.022;5.534;2023-09-12T05:22:30;19.90;93.60
65046;DHT22;54657;52.022;5.534;2023-09-12T05:24:56;19.90;93.60
65046;DHT22;54657;52.022;5.534;2023-09-12T05:27:21;19.90;93.70
65046;DHT22;54657;52.022;5.534;2023-09-12T05:29:47;19.90;93.70
65046;DHT22;54657;52.022;5.534;2023-09-12T05:32:13;19.90;93.70
65046;DHT22;54657;52.022;5.534;2023-09-12T05:34:38;19.90;93.80
65046;DHT22;54657;52.022;5.534;2023-09-12T05:37:04;19.90;93.90
65046;DHT22;54657;52.022;5.534;2023-09-12T05:39:30;20.00;93.90
65046;DHT22;54657;52.022;5.534;2023-09-12T05:41:55;20.00;93.80
65046;DHT22;54657;52.022;5.534;2023-09-12T05:44:21;20.10;93.80
65046;DHT22;54657;52.022;5.534;2023-09-12T05:46:47;20.20;93.80
65046;DHT22;54657;52.022;5.534;2023-09-12T05:49:13;20.20;93.80
65046;DHT22;54657;52.022;5.534;2023-09-12T05:51:40;20.20;93.90
65046;DHT22;54657;52.022;5.534;2023-09-12T05:54:06;20.30;93.90
65046;DHT22;54657;52.022;5.534;2023-09-12T05:56:31;20.30;93.90
65046;DHT22;54657;52.022;5.534;2023-09-12T05:58:57;20.30;93.90
65046;DHT22;54657;52.022;5.534;2023-09-12T06:01:23;20.30;94.00
65046;DHT22;54657;52.022;5.534;2023-09-12T06:03:48;20.30;94.00
65046;DHT22;54657;52.022;5.534;2023-09-12T06:06:14;20.40;94.30
65046;DHT22;54657;52.022;5.534;2023-09-12T06:08:40;20.40;94.20
65046;DHT22;54657;52.022;5.534;2023-09-12T06:11:05;20.40;94.20
65046;DHT22;54657;52.022;5.534;2023-09-12T06:13:31;20.50;94.20
65046;DHT22;54657;52.022;5.534;2023-09-12T06:15:58;20.50;94.20
65046;DHT22;54657;52.022;5.534;2023-09-12T06:18:24;20.50;94.20
65046;DHT22;54657;52.022;5.534;2023-09-12T06:20:49;20.60;94.20
65046;DHT22;54657;52.022;5.534;2023-09-12T06:23:15;20.70;94.10
65046;DHT22;54657;52.022;5.534;2023-09-12T06:25:41;20.70;94.10
65046;DHT22;54657;52.022;5.534;2023-09-12T06:28:09;20.70;94.10
65046;DHT22;54657;52.022;5.534;2023-09-12T06:30:35;20.80;94.10
65046;DHT22;54657;52.022;5.534;2023-09-12T06:33:01;20.80;94.40
65046;DHT22;54657;52.022;5.534;2023-09-12T06:35:27;20.80;94.10
65046;DHT22;54657;52.022;5.534;2023-09-12T06:37:53;20.80;94.10
65046;DHT22;54657;52.022;5.534;2023-09-12T06:40:19;20.80;94.10
65046;DHT22;54657;52.022;5.534;2023-09-12T06:42:44;20.90;94.10
65046;DHT22;54657;52.022;5.534;2023-09-12T06:45:10;20.90;94.20
65046;DHT22;54657;52.022;5.534;2023-09-12T06:47:36;20.90;94.40
65046;DHT22;54657;52.022;5.534;2023-09-12T06:50:02;20.90;94.20
65046;DHT22;54657;52.022;5.534;2023-09-12T06:52:27;20.90;94.20
65046;DHT22;54657;52.022;5.534;2023-09-12T06:54:53;20.90;94.20
65046;DHT22;54657;52.022;5.534;2023-09-12T06:57:19;20.90;94.30
65046;DHT22;54657;52.022;5.534;2023-09-12T06:59:44;20.90;94.60
65046;DHT22;54657;52.022;5.534;2023-09-12T07:02:10;21.00;94.30
65046;DHT22;54657;52.022;5.534;2023-09-12T07:04:38;21.00;94.30
65046;DHT22;54657;52.022;5.534;2023-09-12T07:07:03;21.00;94.40
65046;DHT22;54657;52.022;5.534;2023-09-12T07:09:30;21.00;94.40
65046;DHT22;54657;52.022;5.534;2023-09-12T07:11:55;21.00;94.50
65046;DHT22;54657;52.022;5.534;2023-09-12T07:14:21;21.10;94.50
65046;DHT22;54657;52.022;5.534;2023-09-12T07:16:47;21.10;94.40
65046;DHT22;54657;52.022;5.534;2023-09-12T07:19:12;21.10;94.50
65046;DHT22;54657;52.022;5.534;2023-09-12T07:21:38;21.10;94.50
65046;DHT22;54657;52.022;5.534;2023-09-12T07:24:04;21.10;94.50
65046;DHT22;54657;52.022;5.534;2023-09-12T07:26:31;21.10;94.60
65046;DHT22;54657;52.022;5.534;2023-09-12T07:28:56;21.20;94.50
65046;DHT22;54657;52.022;5.534;2023-09-12T07:31:22;21.20;94.50
65046;DHT22;54657;52.022;5.534;2023-09-12T07:33:48;21.30;94.50
65046;DHT22;54657;52.022;5.534;2023-09-12T07:36:13;21.20;94.50
65046;DHT22;54657;52.022;5.534;2023-09-12T07:38:39;21.30;94.50
65046;DHT22;54657;52.022;5.534;2023-09-12T07:41:06;21.30;94.60
65046;DHT22;54657;52.022;5.534;2023-09-12T07:43:32;21.20;94.60
65046;DHT22;54657;52.022;5.534;2023-09-12T07:45:58;21.10;94.70
65046;DHT22;54657;52.022;5.534;2023-09-12T07:48:24;21.10;94.80
65046;DHT22;54657;52.022;5.534;2023-09-12T07:50:49;21.10;94.80
65046;DHT22;54657;52.022;5.534;2023-09-12T07:53:17;21.20;94.80
65046;DHT22;54657;52.022;5.534;2023-09-12T07:55:42;21.30;94.80
65046;DHT22;54657;52.022;5.534;2023-09-12T07:58:16;21.30;94.70
65046;DHT22;54657;52.022;5.534;2023-09-12T08:00:43;21.40;94.60
65046;DHT22;54657;52.022;5.534;2023-09-12T08:03:09;21.40;95.10
65046;DHT22;54657;52.022;5.534;2023-09-12T08:05:35;21.40;94.70
65046;DHT22;54657;52.022;5.534;2023-09-12T08:08:01;21.50;94.60
65046;DHT22;54657;52.022;5.534;2023-09-12T08:10:27;21.50;94.60
65046;DHT22;54657;52.022;5.534;2023-09-12T08:12:53;21.50;94.60
65046;DHT22;54657;52.022;5.534;2023-09-12T08:15:19;21.60;94.70
65046;DHT22;54657;52.022;5.534;2023-09-12T08:17:45;21.70;94.70
65046;DHT22;54657;52.022;5.534;2023-09-12T08:20:11;21.70;94.70
65046;DHT22;54657;52.022;5.534;2023-09-12T08:22:37;21.80;94.70
65046;DHT22;54657;52.022;5.534;2023-09-12T08:25:03;21.90;94.60
65046;DHT22;54657;52.022;5.534;2023-09-12T08:27:28;21.90;94.60
65046;DHT22;54657;52.022;5.534;2023-09-12T08:29:54;22.00;94.60
65046;DHT22;54657;52.022;5.534;2023-09-12T08:32:20;22.00;94.70
65046;DHT22;54657;52.022;5.534;2023-09-12T08:34:45;22.10;94.80
65046;DHT22;54657;52.022;5.534;2023-09-12T08:37:11;22.20;94.90
65046;DHT22;54657;52.022;5.534;2023-09-12T08:39:42;22.20;94.60
65046;DHT22;54657;52.022;5.534;2023-09-12T08:42:15;22.20;94.50
65046;DHT22;54657;52.022;5.534;2023-09-12T08:44:41;22.30;94.50
65046;DHT22;54657;52.022;5.534;2023-09-12T08:47:11;22.30;94.50
65046;DHT22;54657;52.022;5.534;2023-09-12T08:49:37;22.40;94.50
65046;DHT22;54657;52.022;5.534;2023-09-12T08:52:06;22.50;94.50
65046;DHT22;54657;52.022;5.534;2023-09-12T08:54:32;22.50;94.40
65046;DHT22;54657;52.022;5.534;2023-09-12T08:57:00;22.60;94.20
65046;DHT22;54657;52.022;5.534;2023-09-12T08:59:27;22.60;94.10
65046;DHT22;54657;52.022;5.534;2023-09-12T09:01:53;22.60;94.20
65046;DHT22;54657;52.022;5.534;2023-09-12T09:04:21;22.70;94.20
65046;DHT22;54657;52.022;5.534;2023-09-12T09:06:48;22.80;94.40
65046;DHT22;54657;52.022;5.534;2023-09-12T09:09:15;22.80;94.00
65046;DHT22;54657;52.022;5.534;2023-09-12T09:11:41;22.90;93.90
65046;DHT22;54657;52.022;5.534;2023-09-12T09:14:07;23.00;93.80
65046;DHT22;54657;52.022;5.534;2023-09-12T09:16:32;23.10;93.50
65046;DHT22;54657;52.022;5.534;2023-09-12T09:19:05;23.20;93.50
65046;DHT22;54657;52.022;5.534;2023-09-12T09:21:37;23.20;93.40
65046;DHT22;54657;52.022;5.534;2023-09-12T09:24:14;23.30;93.30
65046;DHT22;54657;52.022;5.534;2023-09-12T09:26:44;23.30;93.40
65046;DHT22;54657;52.022;5.534;2023-09-12T09:29:20;23.30;93.50
65046;DHT22;54657;52.022;5.534;2023-09-12T09:31:48;23.40;93.50
65046;DHT22;54657;52.022;5.534;2023-09-12T09:34:21;23.50;93.60
65046;DHT22;54657;52.022;5.534;2023-09-12T09:36:48;23.50;93.10
65046;DHT22;54657;52.022;5.534;2023-09-12T09:39:16;23.60;93.20
65046;DHT22;54657;52.022;5.534;2023-09-12T09:41:42;23.70;93.10
65046;DHT22;54657;52.022;5.534;2023-09-12T09:44:13;23.80;93.00
65046;DHT22;54657;52.022;5.534;2023-09-12T09:46:39;23.80;92.80
65046;DHT22;54657;52.022;5.534;2023-09-12T09:49:10;23.90;92.80
65046;DHT22;54657;52.022;5.534;2023-09-12T09:51:42;23.90;92.70
65046;DHT22;54657;52.022;5.534;2023-09-12T09:54:08;24.00;92.50
65046;DHT22;54657;52.022;5.534;2023-09-12T09:56:54;23.90;92.10
65046;DHT22;54657;52.022;5.534;2023-09-12T09:59:25;23.90;92.60
65046;DHT22;54657;52.022;5.534;2023-09-12T10:01:56;24.00;92.70
65046;DHT22;54657;52.022;5.534;2023-09-12T10:04:22;24.00;92.50
65046;DHT22;54657;52.022;5.534;2023-09-12T10:06:49;24.10;92.60
65046;DHT22;54657;52.022;5.534;2023-09-12T10:09:16;24.10;92.50
65046;DHT22;54657;52.022;5.534;2023-09-12T10:11:43;24.10;92.50
65046;DHT22;54657;52.022;5.534;2023-09-12T10:14:11;24.10;92.40
65046;DHT22;54657;52.022;5.534;2023-09-12T10:16:50;24.20;92.30
65046;DHT22;54657;52.022;5.534;2023-09-12T10:19:43;24.20;92.00
65046;DHT22;54657;52.022;5.534;2023-09-12T10:22:21;24.30;92.50
65046;DHT22;54657;52.022;5.534;2023-09-12T10:24:49;24.40;92.20
65046;DHT22;54657;52.022;5.534;2023-09-12T10:27:18;24.30;92.30
65046;DHT22;54657;52.022;5.534;2023-09-12T10:29:44;24.40;92.20
65046;DHT22;54657;52.022;5.534;2023-09-12T10:32:13;24.40;92.20
65046;DHT22;54657;52.022;5.534;2023-09-12T10:34:40;24.30;92.20
65046;DHT22;54657;52.022;5.534;2023-09-12T10:37:12;24.40;92.20
65046;DHT22;54657;52.022;5.534;2023-09-12T10:39:40;24.40;92.10
65046;DHT22;54657;52.022;5.534;2023-09-12T10:42:07;24.50;91.90
65046;DHT22;54657;52.022;5.534;2023-09-12T10:44:33;24.50;91.80
65046;DHT22;54657;52.022;5.534;2023-09-12T10:47:00;24.50;91.70
65046;DHT22;54657;52.022;5.534;2023-09-12T10:49:26;24.60;91.70
65046;DHT22;54657;52.022;5.534;2023-09-12T10:51:53;24.60;91.60
65046;DHT22;54657;52.022;5.534;2023-09-12T10:54:38;24.60;91.60
65046;DHT22;54657;52.022;5.534;2023-09-12T10:57:11;24.60;91.30
65046;DHT22;54657;52.022;5.534;2023-09-12T11:02:29;24.70;91.00
65046;DHT22;54657;52.022;5.534;2023-09-12T11:04:55;24.70;91.40
65046;DHT22;54657;52.022;5.534;2023-09-12T11:12:55;24.70;91.10
65046;DHT22;54657;52.022;5.534;2023-09-12T11:15:24;24.80;90.80
65046;DHT22;54657;52.022;5.534;2023-09-12T11:18:01;24.80;91.00
65046;DHT22;54657;52.022;5.534;2023-09-12T11:20:50;25.00;90.90
65046;DHT22;54657;52.022;5.534;2023-09-12T11:23:17;25.10;90.20
65046;DHT22;54657;52.022;5.534;2023-09-12T11:25:43;25.10;90.80
65046;DHT22;54657;52.022;5.534;2023-09-12T11:28:09;25.10;90.60
65046;DHT22;54657;52.022;5.534;2023-09-12T11:30:35;25.10;90.50
65046;DHT22;54657;52.022;5.534;2023-09-12T11:33:04;25.20;90.50
65046;DHT22;54657;52.022;5.534;2023-09-12T11:35:36;25.30;90.10
65046;DHT22;54657;52.022;5.534;2023-09-12T11:38:02;25.30;90.20
65046;DHT22;54657;52.022;5.534;2023-09-12T11:43:00;25.50;90.10
65046;DHT22;54657;52.022;5.534;2023-09-12T11:45:27;25.40;90.30
65046;DHT22;54657;52.022;5.534;2023-09-12T11:47:53;25.30;90.40
65046;DHT22;54657;52.022;5.534;2023-09-12T11:50:52;25.20;90.60
65046;DHT22;54657;52.022;5.534;2023-09-12T11:53:24;25.20;89.20
65046;DHT22;54657;52.022;5.534;2023-09-12T11:55:57;25.00;90.60
65046;DHT22;54657;52.022;5.534;2023-09-12T11:58:24;24.80;90.50
65046;DHT22;54657;52.022;5.534;2023-09-12T12:00:51;24.70;90.70
65046;DHT22;54657;52.022;5.534;2023-09-12T12:03:18;24.70;90.90
65046;DHT22;54657;52.022;5.534;2023-09-12T12:05:45;24.70;90.70
65046;DHT22;54657;52.022;5.534;2023-09-12T12:08:11;24.80;90.60
65046;DHT22;54657;52.022;5.534;2023-09-12T12:10:37;24.80;90.40
65046;DHT22;54657;52.022;5.534;2023-09-12T12:13:16;24.80;90.40
65046;DHT22;54657;52.022;5.534;2023-09-12T12:15:42;24.90;90.00
65046;DHT22;54657;52.022;5.534;2023-09-12T12:18:08;24.90;90.20
65046;DHT22;54657;52.022;5.534;2023-09-12T12:20:33;24.90;90.00
65046;DHT22;54657;52.022;5.534;2023-09-12T12:22:59;24.80;89.80
65046;DHT22;54657;52.022;5.534;2023-09-12T12:25:25;24.80;89.80
65046;DHT22;54657;52.022;5.534;2023-09-12T12:27:53;24.80;89.80
65046;DHT22;54657;52.022;5.534;2023-09-12T12:36:59;24.80;89.20
65046;DHT22;54657;52.022;5.534;2023-09-12T12:39:27;24.80;89.90
65046;DHT22;54657;52.022;5.534;2023-09-12T12:45:52;24.80;88.70
65046;DHT22;54657;52.022;5.534;2023-09-12T12:48:31;24.70;89.30
65046;DHT22;54657;52.022;5.534;2023-09-12T12:50:58;24.70;90.10
65046;DHT22;54657;52.022;5.534;2023-09-12T12:53:37;24.70;90.20
65046;DHT22;54657;52.022;5.534;2023-09-12T12:56:03;24.70;89.50
65046;DHT22;54657;52.022;5.534;2023-09-12T12:58:49;24.70;89.90
65046;DHT22;54657;52.022;5.534;2023-09-12T13:04:23;24.70;89.00
65046;DHT22;54657;52.022;5.534;2023-09-12T13:06:49;24.70;88.60
65046;DHT22;54657;52.022;5.534;2023-09-12T13:09:15;24.70;89.00
65046;DHT22;54657;52.022;5.534;2023-09-12T13:11:42;24.70;88.00
65046;DHT22;54657;52.022;5.534;2023-09-12T13:14:13;24.80;87.60
65046;DHT22;54657;52.022;5.534;2023-09-12T13:17:09;24.80;87.20
65046;DHT22;54657;52.022;5.534;2023-09-12T13:23:08;24.90;85.20
65046;DHT22;54657;52.022;5.534;2023-09-12T13:26:03;24.90;86.90
65046;DHT22;54657;52.022;5.534;2023-09-12T13:32:13;24.90;84.70
65046;DHT22;54657;52.022;5.534;2023-09-12T13:38:40;24.90;85.30
65046;DHT22;54657;52.022;5.534;2023-09-12T13:41:17;24.90;85.30
65046;DHT22;54657;52.022;5.534;2023-09-12T13:48:08;25.00;84.70
65046;DHT22;54657;52.022;5.534;2023-09-12T13:50:52;25.00;84.90
65046;DHT22;54657;52.022;5.534;2023-09-12T13:53:17;25.00;85.90
65046;DHT22;54657;52.022;5.534;2023-09-12T13:55:43;25.00;85.70
65046;DHT22;54657;52.022;5.534;2023-09-12T13:58:09;25.00;86.10
65046;DHT22;54657;52.022;5.534;2023-09-12T14:00:34;25.00;86.20
65046;DHT22;54657;52.022;5.534;2023-09-12T14:03:01;25.00;85.40
65046;DHT22;54657;52.022;5.534;2023-09-12T14:05:26;25.10;85.20
65046;DHT22;54657;52.022;5.534;2023-09-12T14:07:52;25.10;84.40
65046;DHT22;54657;52.022;5.534;2023-09-12T14:10:18;25.10;84.30
65046;DHT22;54657;52.022;5.534;2023-09-12T14:12:43;25.10;84.10
65046;DHT22;54657;52.022;5.534;2023-09-12T14:15:11;25.10;83.80
65046;DHT22;54657;52.022;5.534;2023-09-12T14:17:37;25.20;83.50
65046;DHT22;54657;52.022;5.534;2023-09-12T14:20:03;25.20;83.40
65046;DHT22;54657;52.022;5.534;2023-09-12T14:22:29;25.20;83.60
65046;DHT22;54657;52.022;5.534;2023-09-12T14:24:55;25.20;83.70
65046;DHT22;54657;52.022;5.534;2023-09-12T14:27:20;25.30;83.80
65046;DHT22;54657;52.022;5.534;2023-09-12T14:29:46;25.20;83.70
65046;DHT22;54657;52.022;5.534;2023-09-12T14:32:14;25.20;83.60
65046;DHT22;54657;52.022;5.534;2023-09-12T14:34:40;25.20;83.60
65046;DHT22;54657;52.022;5.534;2023-09-12T14:37:05;25.10;83.70
65046;DHT22;54657;52.022;5.534;2023-09-12T14:39:31;25.10;83.60
65046;DHT22;54657;52.022;5.534;2023-09-12T14:41:56;25.00;83.50
65046;DHT22;54657;52.022;5.534;2023-09-12T14:44:23;25.00;83.30
65046;DHT22;54657;52.022;5.534;2023-09-12T14:46:49;25.00;83.40
65046;DHT22;54657;52.022;5.534;2023-09-12T14:49:15;25.00;83.40
65046;DHT22;54657;52.022;5.534;2023-09-12T14:51:40;25.00;83.50
65046;DHT22;54657;52.022;5.534;2023-09-12T14:54:06;25.00;83.80
65046;DHT22;54657;52.022;5.534;2023-09-12T14:56:33;24.90;84.20
65046;DHT22;54657;52.022;5.534;2023-09-12T14:58:59;24.70;84.60
65046;DHT22;54657;52.022;5.534;2023-09-12T15:01:25;24.70;85.20
65046;DHT22;54657;52.022;5.534;2023-09-12T15:03:51;24.60;85.50
65046;DHT22;54657;52.022;5.534;2023-09-12T15:06:17;24.50;85.80
65046;DHT22;54657;52.022;5.534;2023-09-12T15:08:43;24.50;86.10
65046;DHT22;54657;52.022;5.534;2023-09-12T15:11:09;24.50;86.30
65046;DHT22;54657;52.022;5.534;2023-09-12T15:13:36;24.50;86.60
65046;DHT22;54657;52.022;5.534;2023-09-12T15:16:03;24.50;86.80
65046;DHT22;54657;52.022;5.534;2023-09-12T15:18:29;24.50;86.80
65046;DHT22;54657;52.022;5.534;2023-09-12T15:20:54;24.60;86.80
65046;DHT22;54657;52.022;5.534;2023-09-12T15:23:20;24.60;86.60
65046;DHT22;54657;52.022;5.534;2023-09-12T15:25:51;24.70;86.50
65046;DHT22;54657;52.022;5.534;2023-09-12T15:28:17;24.70;86.50
65046;DHT22;54657;52.022;5.534;2023-09-12T15:30:43;24.60;86.20
65046;DHT22;54657;52.022;5.534;2023-09-12T15:34:00;24.50;86.20
65046;DHT22;54657;52.022;5.534;2023-09-12T15:36:44;24.60;85.90
65046;DHT22;54657;52.022;5.534;2023-09-12T15:42:45;24.60;86.00
65046;DHT22;54657;52.022;5.534;2023-09-12T15:45:14;24.60;86.40
65046;DHT22;54657;52.022;5.534;2023-09-12T15:47:41;24.60;86.50
65046;DHT22;54657;52.022;5.534;2023-09-12T15:50:07;24.60;86.50
65046;DHT22;54657;52.022;5.534;2023-09-12T15:52:35;24.60;86.70
65046;DHT22;54657;52.022;5.534;2023-09-12T15:55:06;24.60;86.80
65046;DHT22;54657;52.022;5.534;2023-09-12T15:57:32;24.60;86.80
65046;DHT22;54657;52.022;5.534;2023-09-12T15:59:58;24.50;86.90
65046;DHT22;54657;52.022;5.534;2023-09-12T16:02:25;24.50;87.00
65046;DHT22;54657;52.022;5.534;2023-09-12T16:04:51;24.50;87.10
65046;DHT22;54657;52.022;5.534;2023-09-12T16:07:17;24.50;87.10
65046;DHT22;54657;52.022;5.534;2023-09-12T16:09:43;24.50;87.30
65046;DHT22;54657;52.022;5.534;2023-09-12T16:12:09;24.40;87.20
65046;DHT22;54657;52.022;5.534;2023-09-12T16:14:34;24.30;87.30
65046;DHT22;54657;52.022;5.534;2023-09-12T16:17:00;24.20;87.50
65046;DHT22;54657;52.022;5.534;2023-09-12T16:19:27;24.20;87.30
65046;DHT22;54657;52.022;5.534;2023-09-12T16:21:52;24.20;87.50